createdAt,value
2024-03-05T00:00:27.202Z,40.95
2024-03-05T00:02:53.879Z,49.95
2024-03-05T00:05:20.672Z,41.92
2024-03-05T00:07:47.485Z,47.13
2024-03-05T00:10:14.593Z,43.35
2024-03-05T00:12:41.656Z,45.70
2024-03-05T00:15:08.756Z,47.85
2024-03-05T00:17:35.507Z,48.00
2024-03-05T00:20:02.390Z,49.70
2024-03-05T00:22:29.377Z,51.70
2024-03-05T00:24:56.362Z,46.40
2024-03-05T00:27:23.114Z,46.17
2024-03-05T00:29:49.839Z,42.97
2024-03-05T00:32:17.057Z,48.72
2024-03-05T00:34:43.787Z,46.60
2024-03-05T00:37:10.551Z,44.88
2024-03-05T00:39:37.344Z,45.25
2024-03-05T00:42:04.892Z,41.45
2024-03-05T00:44:31.668Z,47.38
2024-03-05T00:46:58.519Z,44.53
2024-03-05T00:49:25.449Z,42.65
2024-03-05T00:51:52.137Z,44.53
2024-03-05T00:54:18.887Z,52.05
2024-03-05T00:56:45.716Z,46.60
2024-03-05T00:59:12.652Z,48.63
2024-03-05T01:01:40.827Z,50.38
2024-03-05T01:04:09.156Z,44.97
2024-03-05T01:06:36.029Z,42.67
2024-03-05T01:09:03.817Z,44.22
2024-03-05T01:11:31.107Z,48.25
2024-03-05T01:13:58.769Z,44.95
2024-03-05T01:16:27.607Z,45.88
2024-03-05T01:18:56.496Z,46.92
2024-03-05T01:21:23.282Z,46.20
2024-03-05T01:23:50.054Z,45.17
2024-03-05T01:26:16.901Z,42.40
2024-03-05T01:28:44.116Z,41.58
2024-03-05T01:31:10.918Z,43.03
2024-03-05T01:33:38.860Z,42.90
2024-03-05T01:36:05.852Z,45.45
2024-03-05T01:38:32.584Z,53.28
2024-03-05T01:40:59.333Z,46.75
2024-03-05T01:43:26.165Z,45.55
2024-03-05T01:45:52.870Z,46.75
2024-03-05T01:48:19.535Z,47.60
2024-03-05T01:50:46.423Z,49.33
2024-03-05T01:53:13.539Z,52.40
2024-03-05T01:55:40.473Z,46.45
2024-03-05T01:58:09.064Z,45.78
2024-03-05T02:00:38.846Z,48.13
2024-03-05T02:03:06.211Z,48.70
2024-03-05T02:05:34.053Z,55.80
2024-03-05T02:08:01.598Z,51.67
2024-03-05T02:10:28.511Z,44.50
2024-03-05T02:12:56.060Z,42.05
2024-03-05T02:15:22.801Z,42.63
2024-03-05T02:17:49.853Z,48.47
2024-03-05T02:20:16.642Z,43.85
2024-03-05T02:22:43.757Z,41.75
2024-03-05T02:25:10.956Z,45.47
2024-03-05T02:27:38.262Z,44.92
2024-03-05T02:30:11.644Z,57.55
2024-03-05T02:32:42.192Z,48.40
2024-03-05T02:35:10.023Z,51.97
2024-03-05T02:37:40.323Z,50.38
2024-03-05T02:40:11.083Z,42.92
2024-03-05T02:42:38.157Z,46.70
2024-03-05T02:45:08.611Z,53.88
2024-03-05T02:47:37.325Z,58.05
2024-03-05T02:50:10.083Z,60.00
2024-03-05T02:52:37.428Z,53.08
2024-03-05T02:55:04.437Z,60.60
2024-03-05T02:57:32.647Z,53.08
2024-03-05T02:59:59.305Z,63.60
2024-03-05T03:02:26.025Z,76.40
2024-03-05T03:04:52.899Z,114.57
2024-03-05T03:07:19.934Z,86.45
2024-03-05T03:09:47.670Z,82.18
2024-03-05T03:12:14.518Z,63.03
2024-03-05T03:14:45.315Z,56.95
2024-03-05T03:17:12.472Z,61.78
2024-03-05T03:19:39.259Z,54.95
2024-03-05T03:22:05.976Z,46.78
2024-03-05T03:24:32.823Z,60.25
2024-03-05T03:26:59.619Z,54.03
2024-03-05T03:29:27.813Z,50.80
2024-03-05T03:31:56.435Z,49.10
2024-03-05T03:34:23.373Z,51.65
2024-03-05T03:36:50.250Z,49.35
2024-03-05T03:39:25.192Z,53.17
2024-03-05T03:41:56.501Z,54.85
2024-03-05T03:44:23.782Z,61.15
2024-03-05T03:46:51.489Z,68.88
2024-03-05T03:49:25.176Z,50.92
2024-03-05T03:51:55.434Z,51.92
2024-03-05T03:54:23.042Z,52.58
2024-03-05T03:56:50.084Z,52.28
2024-03-05T03:59:17.084Z,56.83
2024-03-05T04:01:51.044Z,47.80
2024-03-05T04:04:17.970Z,50.97
2024-03-05T04:06:46.577Z,45.50
2024-03-05T04:09:15.429Z,47.67
2024-03-05T04:11:42.956Z,44.85
2024-03-05T04:14:10.382Z,48.20
2024-03-05T04:16:41.267Z,97.82
2024-03-05T04:19:10.954Z,109.43
2024-03-05T04:21:43.994Z,91.05
2024-03-05T04:24:14.820Z,187.73
2024-03-05T04:26:42.834Z,193.30
2024-03-05T04:29:17.085Z,161.70
2024-03-05T04:31:50.197Z,220.88
2024-03-05T04:34:20.943Z,162.57
2024-03-05T04:36:47.894Z,183.30
2024-03-05T04:39:17.789Z,63.35
2024-03-05T04:41:45.632Z,131.15
2024-03-05T04:44:12.302Z,307.27
2024-03-05T04:46:39.643Z,295.48
2024-03-05T04:49:07.541Z,176.73
2024-03-05T04:51:34.424Z,225.10
2024-03-05T04:54:01.113Z,282.42
2024-03-05T04:56:27.911Z,220.07
2024-03-05T04:58:54.767Z,258.70
2024-03-05T05:01:21.852Z,339.63
2024-03-05T05:03:48.568Z,249.65
2024-03-05T05:06:16.706Z,173.35
2024-03-05T05:08:43.878Z,254.30
2024-03-05T05:11:10.846Z,278.80
2024-03-05T05:13:37.729Z,309.23
2024-03-05T05:16:06.327Z,334.45
2024-03-05T05:18:33.165Z,134.93
2024-03-05T05:21:00.065Z,205.45
2024-03-05T05:23:27.042Z,197.90
2024-03-05T05:25:54.069Z,237.48
2024-03-05T05:28:20.937Z,319.23
2024-03-05T05:30:47.710Z,275.40
2024-03-05T05:33:14.518Z,179.15
2024-03-05T05:35:41.437Z,366.45
2024-03-05T05:38:11.811Z,135.15
2024-03-05T05:40:38.796Z,232.63
2024-03-05T05:43:05.618Z,126.88
2024-03-05T05:45:32.418Z,115.22
2024-03-05T05:47:59.557Z,179.57
2024-03-05T05:50:32.889Z,90.35
2024-03-05T05:53:00.472Z,66.35
2024-03-05T05:55:27.807Z,52.15
2024-03-05T05:57:55.545Z,54.55
2024-03-05T06:00:26.162Z,48.90
2024-03-05T06:02:54.187Z,50.50
2024-03-05T06:05:26.013Z,55.15
2024-03-05T06:07:53.058Z,50.97
2024-03-05T06:10:19.962Z,48.20
2024-03-05T06:12:46.886Z,47.60
2024-03-05T06:15:13.915Z,43.08
2024-03-05T06:17:41.332Z,43.53
2024-03-05T06:20:11.608Z,44.42
2024-03-05T06:22:42.488Z,35.88
2024-03-05T06:25:09.788Z,35.70
2024-03-05T06:27:39.679Z,34.33
2024-03-05T06:30:19.506Z,39.53
2024-03-05T06:32:48.822Z,33.67
2024-03-05T06:35:27.416Z,32.97
2024-03-05T06:37:55.070Z,32.72
2024-03-05T06:40:23.981Z,27.58
2024-03-05T06:42:54.260Z,27.35
2024-03-05T06:45:30.616Z,31.02
2024-03-05T06:50:38.325Z,28.23
2024-03-05T06:53:24.211Z,31.27
2024-03-05T06:56:09.532Z,36.63
2024-03-05T06:58:40.595Z,37.72
2024-03-05T07:01:10.132Z,33.80
2024-03-05T07:03:38.115Z,36.10
2024-03-05T07:06:08.348Z,27.67
2024-03-05T07:08:41.899Z,34.33
2024-03-05T07:11:11.290Z,31.48
2024-03-05T07:13:48.656Z,29.63
2024-03-05T07:16:19.481Z,28.13
2024-03-05T07:18:50.864Z,30.60
2024-03-05T07:21:22.844Z,26.05
2024-03-05T07:23:53.799Z,25.20
2024-03-05T07:26:21.695Z,23.17
2024-03-05T07:28:48.833Z,18.50
2024-03-05T07:31:16.448Z,20.60
2024-03-05T07:33:44.550Z,19.42
2024-03-05T07:36:12.054Z,18.00
2024-03-05T07:38:39.897Z,17.02
2024-03-05T07:41:17.147Z,16.98
2024-03-05T07:43:49.301Z,14.43
2024-03-05T07:46:18.737Z,13.98
2024-03-05T07:48:45.692Z,18.48
2024-03-05T07:51:13.056Z,15.77
2024-03-05T07:53:42.770Z,15.73
2024-03-05T07:56:09.832Z,18.90
2024-03-05T07:58:36.568Z,14.30
2024-03-05T08:01:03.423Z,15.25
2024-03-05T08:03:30.151Z,16.80
2024-03-05T08:05:58.647Z,14.52
2024-03-05T08:08:26.698Z,21.98
2024-03-05T08:10:53.564Z,14.75
2024-03-05T08:13:21.346Z,14.32
2024-03-05T08:15:48.052Z,13.60
2024-03-05T08:18:14.795Z,12.52
2024-03-05T08:20:41.586Z,13.88
2024-03-05T08:23:08.980Z,12.43
2024-03-05T08:25:35.813Z,14.65
2024-03-05T08:28:02.534Z,15.05
2024-03-05T08:30:33.632Z,14.38
2024-03-05T08:33:04.865Z,12.95
2024-03-05T08:35:32.550Z,15.80
2024-03-05T08:38:01.091Z,18.80
2024-03-05T08:40:33.611Z,95.53
2024-03-05T08:43:04.864Z,53.13
2024-03-05T08:45:32.410Z,51.53
2024-03-05T08:47:59.519Z,29.35
2024-03-05T08:50:30.301Z,20.90
2024-03-05T08:52:59.373Z,15.65
2024-03-05T08:55:27.196Z,16.70
2024-03-05T08:57:55.038Z,19.10
2024-03-05T09:00:32.728Z,25.08
2024-03-05T09:03:09.199Z,18.50
2024-03-05T09:05:36.856Z,21.33
2024-03-05T09:08:04.139Z,15.90
2024-03-05T09:10:31.666Z,18.65
2024-03-05T09:12:59.689Z,21.20
2024-03-05T09:15:29.446Z,21.02
2024-03-05T09:17:56.242Z,18.45
2024-03-05T09:20:24.543Z,18.52
2024-03-05T09:22:51.396Z,75.38
2024-03-05T09:25:18.508Z,131.52
2024-03-05T09:27:48.253Z,94.32
2024-03-05T09:30:17.075Z,145.32
2024-03-05T09:32:45.491Z,51.28
2024-03-05T09:35:14.283Z,40.35
2024-03-05T09:37:41.760Z,37.58
2024-03-05T09:40:17.068Z,35.13
2024-03-05T09:42:44.289Z,47.78
2024-03-05T09:45:15.311Z,47.17
2024-03-05T09:50:12.771Z,57.78
2024-03-05T09:52:39.804Z,52.08
2024-03-05T09:55:07.673Z,46.78
2024-03-05T09:57:35.160Z,37.00
2024-03-05T10:00:01.781Z,46.80
2024-03-05T10:02:29.957Z,46.15
2024-03-05T10:04:58.097Z,45.35
2024-03-05T10:07:27.040Z,44.58
2024-03-05T10:10:12.576Z,42.35
2024-03-05T10:12:40.680Z,46.20
2024-03-05T10:15:23.870Z,39.80
2024-03-05T10:17:52.169Z,47.45
2024-03-05T10:20:29.588Z,40.60
2024-03-05T10:23:02.413Z,45.30
2024-03-05T10:25:30.162Z,47.55
2024-03-05T10:27:57.244Z,48.00
2024-03-05T10:30:33.154Z,47.33
2024-03-05T10:33:11.068Z,50.55
2024-03-05T10:35:39.525Z,43.78
2024-03-05T10:38:11.887Z,48.83
2024-03-05T10:40:39.448Z,53.00
2024-03-05T10:43:08.131Z,43.78
2024-03-05T10:45:36.095Z,41.80
2024-03-05T10:48:02.919Z,36.58
2024-03-05T10:50:29.865Z,41.08
2024-03-05T10:52:57.231Z,37.45
2024-03-05T10:55:24.560Z,45.55
2024-03-05T10:58:15.708Z,37.63
2024-03-05T11:00:45.049Z,37.60
2024-03-05T11:03:13.925Z,34.50
2024-03-05T11:06:01.502Z,34.10
2024-03-05T11:08:28.183Z,48.58
2024-03-05T11:11:00.390Z,33.85
2024-03-05T11:13:27.727Z,27.30
2024-03-05T11:15:54.396Z,31.42
2024-03-05T11:18:32.705Z,28.13
2024-03-05T11:21:12.830Z,25.00
2024-03-05T11:23:43.827Z,28.80
2024-03-05T11:26:21.368Z,29.45
2024-03-05T11:28:48.817Z,29.92
2024-03-05T11:31:22.477Z,24.10
2024-03-05T11:33:59.592Z,23.40
2024-03-05T11:36:26.297Z,20.48
2024-03-05T11:39:08.792Z,20.98
2024-03-05T11:41:39.954Z,19.83
2024-03-05T11:44:06.711Z,21.45
2024-03-05T11:46:42.901Z,22.88
2024-03-05T11:49:10.483Z,18.48
2024-03-05T11:51:38.629Z,18.85
2024-03-05T11:54:05.266Z,19.83
2024-03-05T11:56:33.152Z,23.02
2024-03-05T11:59:00.040Z,19.70
2024-03-05T12:01:27.034Z,24.83
2024-03-05T12:04:01.897Z,24.58
2024-03-05T12:06:28.573Z,27.30
2024-03-05T12:08:58.022Z,26.33
2024-03-05T12:11:24.833Z,28.58
2024-03-05T12:13:51.644Z,24.05
2024-03-05T12:16:18.446Z,26.10
2024-03-05T12:18:45.158Z,21.95
2024-03-05T12:21:11.918Z,21.58
2024-03-05T12:23:42.056Z,23.50
2024-03-05T12:26:10.512Z,22.30
2024-03-05T12:28:37.362Z,21.67
2024-03-05T12:31:04.303Z,19.02
2024-03-05T12:33:31.894Z,19.85
2024-03-05T12:35:59.629Z,20.98
2024-03-05T12:38:26.949Z,19.73
2024-03-05T12:41:00.747Z,20.30
2024-03-05T12:43:30.354Z,20.63
2024-03-05T12:46:03.734Z,23.48
2024-03-05T12:48:33.893Z,19.58
2024-03-05T12:51:00.913Z,38.78
2024-03-05T12:53:27.851Z,20.70
2024-03-05T12:56:02.616Z,29.67
2024-03-05T12:58:40.550Z,21.30
2024-03-05T13:01:07.904Z,23.38
2024-03-05T13:03:35.326Z,25.48
2024-03-05T13:06:02.345Z,25.02
2024-03-05T13:08:29.172Z,25.40
2024-03-05T13:10:56.855Z,26.77
2024-03-05T13:13:23.751Z,22.33
2024-03-05T13:15:50.518Z,16.80
2024-03-05T13:18:17.594Z,20.15
2024-03-05T13:20:44.273Z,22.70
2024-03-05T13:23:11.131Z,19.60
2024-03-05T13:25:38.018Z,24.27
2024-03-05T13:28:06.529Z,21.23
2024-03-05T13:30:33.349Z,30.27
2024-03-05T13:33:03.785Z,23.63
2024-03-05T13:35:31.910Z,38.15
2024-03-05T13:37:59.018Z,21.92
2024-03-05T13:40:26.003Z,20.50
2024-03-05T13:42:52.865Z,17.40
2024-03-05T13:45:20.369Z,20.65
2024-03-05T13:47:47.168Z,16.05
2024-03-05T13:50:14.808Z,21.27
2024-03-05T13:52:43.828Z,20.00
2024-03-05T13:55:15.048Z,20.50
2024-03-05T13:57:41.894Z,19.50
2024-03-05T14:00:09.721Z,16.98
2024-03-05T14:02:36.890Z,18.90
2024-03-05T14:05:04.481Z,17.27
2024-03-05T14:07:32.034Z,21.95
2024-03-05T14:09:58.908Z,17.30
2024-03-05T14:12:25.786Z,18.80
2024-03-05T14:14:52.699Z,15.45
2024-03-05T14:17:19.552Z,15.60
2024-03-05T14:19:46.614Z,17.58
2024-03-05T14:22:13.730Z,22.35
2024-03-05T14:24:40.577Z,17.00
2024-03-05T14:27:07.277Z,21.23
2024-03-05T14:29:34.100Z,22.08
2024-03-05T14:32:01.191Z,17.60
2024-03-05T14:34:28.384Z,23.30
2024-03-05T14:36:55.193Z,19.83
2024-03-05T14:39:22.478Z,25.63
2024-03-05T14:41:49.234Z,17.45
2024-03-05T14:44:16.529Z,48.00
2024-03-05T14:46:43.449Z,35.47
2024-03-05T14:49:12.376Z,38.63
2024-03-05T14:51:39.340Z,50.85
2024-03-05T14:54:08.256Z,18.23
2024-03-05T14:56:37.606Z,17.45
2024-03-05T14:59:05.850Z,19.63
2024-03-05T15:01:33.764Z,21.35
2024-03-05T15:04:01.671Z,16.90
2024-03-05T15:06:28.435Z,26.42
2024-03-05T15:08:55.737Z,35.67
2024-03-05T15:11:23.748Z,76.25
2024-03-05T15:13:50.813Z,28.70
2024-03-05T15:16:17.696Z,16.10
2024-03-05T15:18:44.507Z,18.70
2024-03-05T15:21:17.308Z,29.50
2024-03-05T15:23:44.194Z,27.58
2024-03-05T15:26:11.806Z,26.60
2024-03-05T15:28:39.040Z,25.88
2024-03-05T15:31:10.622Z,21.02
2024-03-05T15:33:43.378Z,29.85
2024-03-05T15:36:10.006Z,27.38
2024-03-05T15:38:36.826Z,29.25
2024-03-05T15:41:05.103Z,25.23
2024-03-05T15:43:35.188Z,24.58
2024-03-05T15:46:01.996Z,24.27
2024-03-05T15:48:31.736Z,31.10
2024-03-05T15:51:01.842Z,26.88
2024-03-05T15:53:29.071Z,24.77
2024-03-05T15:56:13.871Z,24.13
2024-03-05T15:58:43.798Z,28.05
2024-03-05T16:01:11.410Z,22.30
2024-03-05T16:03:47.857Z,27.25
2024-03-05T16:06:27.846Z,31.13
2024-03-05T16:08:54.732Z,29.77
2024-03-05T16:11:21.477Z,32.17
2024-03-05T16:13:48.279Z,28.40
2024-03-05T16:16:15.737Z,30.10
2024-03-05T16:18:44.250Z,26.48
2024-03-05T16:21:11.018Z,28.00
2024-03-05T16:23:37.801Z,26.17
2024-03-05T16:26:06.002Z,28.60
2024-03-05T16:28:38.602Z,27.38
2024-03-05T16:31:06.211Z,25.88
2024-03-05T16:33:34.046Z,28.25
2024-03-05T16:36:00.794Z,27.45
2024-03-05T16:38:30.013Z,26.13
2024-03-05T16:40:57.941Z,24.48
2024-03-05T16:43:25.305Z,25.00
2024-03-05T16:45:53.574Z,19.27
2024-03-05T16:48:20.552Z,25.40
2024-03-05T16:50:47.399Z,19.75
2024-03-05T16:53:16.192Z,22.25
2024-03-05T16:55:44.872Z,34.97
2024-03-05T16:58:15.067Z,19.67
2024-03-05T17:00:56.246Z,26.38
2024-03-05T17:03:25.509Z,24.27
2024-03-05T17:05:54.152Z,29.20
2024-03-05T17:08:21.658Z,60.55
2024-03-05T17:10:49.514Z,28.88
2024-03-05T17:13:20.575Z,32.35
2024-03-05T17:15:52.853Z,31.83
2024-03-05T17:18:20.501Z,25.52
2024-03-05T17:20:48.097Z,25.60
2024-03-05T17:23:22.239Z,21.48
2024-03-05T17:25:53.165Z,18.92
2024-03-05T17:28:20.124Z,19.45
2024-03-05T17:30:47.420Z,19.15
2024-03-05T17:33:15.859Z,19.88
2024-03-05T17:35:43.138Z,19.20
2024-03-05T17:38:14.226Z,23.48
2024-03-05T17:40:41.526Z,23.92
2024-03-05T17:43:08.695Z,27.48
2024-03-05T17:45:35.558Z,23.27
2024-03-05T17:48:08.697Z,18.95
2024-03-05T17:50:36.161Z,23.20
2024-03-05T17:53:06.304Z,20.90
2024-03-05T17:55:33.771Z,24.00
2024-03-05T17:58:00.693Z,19.63
2024-03-05T18:00:27.469Z,22.80
2024-03-05T18:02:55.704Z,18.92
2024-03-05T18:05:25.621Z,21.42
2024-03-05T18:07:52.825Z,26.27
2024-03-05T18:10:20.938Z,22.63
2024-03-05T18:12:49.935Z,19.08
2024-03-05T18:15:25.227Z,20.60
2024-03-05T18:17:53.018Z,20.40
2024-03-05T18:20:21.017Z,18.58
2024-03-05T18:22:48.174Z,18.52
2024-03-05T18:25:18.557Z,25.13
2024-03-05T18:27:57.426Z,32.65
2024-03-05T18:30:32.544Z,80.13
2024-03-05T18:33:00.426Z,60.13
2024-03-05T18:35:28.195Z,29.92
2024-03-05T18:37:55.244Z,30.73
2024-03-05T18:40:22.567Z,38.95
2024-03-05T18:42:50.420Z,24.05
2024-03-05T18:45:17.595Z,31.80
2024-03-05T18:47:58.420Z,29.50
2024-03-05T18:50:30.305Z,23.63
2024-03-05T18:53:02.463Z,30.20
2024-03-05T18:57:58.121Z,24.33
2024-03-05T19:00:25.095Z,16.65
2024-03-05T19:02:55.019Z,16.50
2024-03-05T19:05:23.388Z,15.75
2024-03-05T19:07:50.587Z,16.60
2024-03-05T19:10:18.427Z,25.75
2024-03-05T19:12:45.268Z,49.67
2024-03-05T19:15:14.060Z,32.65
2024-03-05T19:17:42.062Z,42.78
2024-03-05T19:20:10.751Z,29.92
2024-03-05T19:22:39.812Z,32.10
2024-03-05T19:25:11.776Z,37.67
2024-03-05T19:27:39.803Z,34.97
2024-03-05T19:30:11.608Z,28.00
2024-03-05T19:32:43.240Z,29.52
2024-03-05T19:35:11.640Z,27.35
2024-03-05T19:37:41.104Z,27.65
2024-03-05T19:40:09.119Z,35.80
2024-03-05T19:42:35.829Z,36.80
2024-03-05T19:45:02.558Z,27.08
2024-03-05T19:47:30.429Z,31.13
2024-03-05T19:49:57.325Z,24.50
2024-03-05T19:52:24.409Z,31.70
2024-03-05T19:54:51.225Z,35.53
2024-03-05T19:57:19.046Z,30.48
2024-03-05T19:59:47.172Z,30.83
2024-03-05T20:02:13.976Z,27.52
2024-03-05T20:04:40.783Z,29.35
2024-03-05T20:07:07.526Z,25.38
2024-03-05T20:09:36.184Z,24.00
2024-03-05T20:12:03.157Z,32.30
2024-03-05T20:14:30.011Z,31.95
2024-03-05T20:16:56.795Z,26.15
2024-03-05T20:19:23.566Z,24.15
2024-03-05T20:21:50.279Z,30.02
2024-03-05T20:24:17.041Z,36.35
2024-03-05T20:26:45.936Z,32.30
2024-03-05T20:29:12.865Z,21.83
2024-03-05T20:31:39.651Z,27.77
2024-03-05T20:34:06.777Z,24.08
2024-03-05T20:36:34.356Z,24.10
2024-03-05T20:39:01.241Z,20.13
2024-03-05T20:41:27.943Z,20.52
2024-03-05T20:43:54.728Z,22.40
2024-03-05T20:46:21.585Z,24.98
2024-03-05T20:48:48.346Z,22.40
2024-03-05T20:51:15.410Z,20.85
2024-03-05T20:53:43.592Z,20.40
2024-03-05T20:56:10.472Z,18.92
2024-03-05T20:58:39.011Z,24.05
2024-03-05T21:01:07.456Z,22.50
2024-03-05T21:03:34.213Z,23.15
2024-03-05T21:06:00.884Z,22.80
2024-03-05T21:08:27.686Z,20.65
2024-03-05T21:10:54.545Z,20.95
2024-03-05T21:13:25.951Z,24.40
2024-03-05T21:15:53.111Z,25.23
2024-03-05T21:18:20.001Z,26.80
2024-03-05T21:20:46.750Z,25.45
2024-03-05T21:23:16.797Z,27.00
2024-03-05T21:25:56.544Z,27.42
2024-03-05T21:28:31.723Z,18.85
2024-03-05T21:31:00.504Z,20.90
2024-03-05T21:33:27.181Z,24.15
2024-03-05T21:35:53.942Z,26.17
2024-03-05T21:38:20.657Z,35.45
2024-03-05T21:40:47.794Z,37.55
2024-03-05T21:43:16.414Z,78.55
2024-03-05T21:45:43.903Z,42.65
2024-03-05T21:48:10.683Z,36.80
2024-03-05T21:50:37.355Z,32.33
2024-03-05T21:53:04.170Z,28.67
2024-03-05T21:55:30.956Z,25.70
2024-03-05T21:57:57.611Z,23.25
2024-03-05T22:00:25.042Z,24.85
2024-03-05T22:02:51.834Z,21.38
2024-03-05T22:05:18.868Z,19.92
2024-03-05T22:07:45.756Z,20.98
2024-03-05T22:10:13.000Z,18.92
2024-03-05T22:12:40.066Z,19.05
2024-03-05T22:15:07.889Z,18.60
2024-03-05T22:17:35.278Z,19.58
2024-03-05T22:20:02.255Z,19.73
2024-03-05T22:22:29.141Z,18.52
2024-03-05T22:24:56.822Z,17.73
2024-03-05T22:27:23.675Z,18.80
2024-03-05T22:29:50.335Z,20.60
2024-03-05T22:32:17.107Z,23.30
2024-03-05T22:34:43.788Z,22.65
2024-03-05T22:37:10.735Z,20.80
2024-03-05T22:39:38.766Z,17.25
2024-03-05T22:42:05.445Z,17.13
2024-03-05T22:44:32.298Z,52.35
2024-03-05T22:46:59.108Z,25.60
2024-03-05T22:49:25.863Z,20.60
2024-03-05T22:51:52.572Z,20.70
2024-03-05T22:54:19.333Z,21.90
2024-03-05T22:56:53.984Z,18.77
2024-03-05T22:59:20.805Z,19.58
2024-03-05T23:01:47.986Z,17.00
2024-03-05T23:04:14.794Z,16.77
2024-03-05T23:06:41.679Z,15.88
2024-03-05T23:09:08.391Z,20.25
2024-03-05T23:11:35.366Z,18.38
2024-03-05T23:14:02.171Z,18.17
2024-03-05T23:16:28.927Z,20.20
2024-03-05T23:18:55.671Z,14.45
2024-03-05T23:21:22.355Z,19.42
2024-03-05T23:23:50.544Z,13.07
2024-03-05T23:26:19.260Z,17.08
2024-03-05T23:28:46.143Z,20.38
2024-03-05T23:31:12.807Z,14.73
2024-03-05T23:33:39.655Z,15.02
2024-03-05T23:36:06.602Z,13.57
2024-03-05T23:38:33.253Z,15.18
2024-03-05T23:41:00.643Z,15.50
2024-03-05T23:43:27.372Z,15.93
2024-03-05T23:45:55.522Z,17.50
2024-03-05T23:48:22.426Z,18.80
2024-03-05T23:50:49.530Z,16.70
2024-03-05T23:53:17.222Z,18.35
2024-03-05T23:55:44.973Z,19.67
2024-03-05T23:58:11.629Z,20.40
